Aviation Digital Data Service (ADDS)

Output produced by METARs form (0641 UTC 24 March 2019)
found at http://www.aviationweather.gov/metar/data/
 
LYPG 240630Z 34007KT CAVOK 17/M01 Q1021 NOSIG
TAF LYPG 240500Z 2406/2506 15007KT CAVOK TX24/2413Z TN08/2505Z 
     PROB40 
     TEMPO 2406/2409 02017KT
       
LYTV 240630Z 11003KT 050V150 CAVOK 16/M03 Q1020 NOSIG
TAF LYTV 240500Z 2406/2506 21006KT CAVOK TX24/2413Z TN07/2505Z 
     PROB30 
     TEMPO 2406/2409 02016KT